Aérodrome :
LOGIN :

S'inscrire | Disclaimer

   EN    FR    IT 

 










Légende :    VFR   VFR Marginal   IFR   IFR Intensif   IFR Très Intensif
Visi : 
Plafond : 
>= 8 km
>= 3000ft
5 à 8 km
1000 à 3000 ft
1500m à 5 km
500 à 1000 ft
800 à 1500m
200 à 500 ft
< 800m
< 200 ft
Symboles :   Orages  Brouillard  Fortes neiges  Fortes précipitations  Vent > 20 kt
SIGMETs :   Divers  Orages  Givrage  Turbulence  Onde Orograph.  Cendres Volcan.






- Altitude de l'aérodrome : 235 ft
- Code IATA : BZG


EPBY - Bydgoszcz

DERNIER METAR :
  • 221630Z 24015KT 9999 BKN040 09/M01 Q1008

METARs EXPIRÉS :
  • 221600Z 24017KT CAVOK 09/M01 Q1008
  • 221530Z 24015KT CAVOK 09/M01 Q1008
  • 221500Z 24017G27KT CAVOK 09/M01 Q1009
  • 221430Z 24016KT 200V260 9999 BKN047 09/M01 Q1008
  • 221400Z 24018KT 9999 BKN037 09/M01 Q1009
  • 221330Z 23018G28KT 200V260 9999 FEW029 BKN033 09/M01 Q1009

TAF TAF EPBY
Valide du 22 à 12h jusqu'au 23 à 12h UTC


221130Z 2212/2312 21014G26KT 9999 BKN040
TEMPO 2212/2223 21018G35KT
PROB30
TEMPO 2216/2302 -SHRA BKN025TCU
BECMG 2220/2223 27014G26KT
TEMPO 2223/2307 27018G35KT
PROB40
TEMPO 2307/2312 5000 RA BKN014



MET'MAP, la Météo Aéronautique d'un coup d'oeil ! - Copyright ORBIFLY Décembre 2007 - Disclaimer

ORBIFLY MET'MAP TEAM :

Programmation & Développement : Alexandra Zaïnal
Sur une idée originale de : Baudouin d'Aumeries
Assistance à la programmation : Marc-Olivier Méhu
Soutien technique & logistique : Manuel Goepfert

Contact : metmap@orbifly.com




SOURCES & CREDITS :

   NOAA